Quaregnon, Belgium
Current Conditions -  °F | °C
As of 3:25 AM on Thursday 23 Oct 2014 (Local Time) from EBCV Reporting Station
Scattered Clouds Scattered Clouds  
Wind Chill: 43°   Ceiling: Unl
Heat Index: 46°   Visibility: 6mi
Dew Point: 45°   Wind: 7mph
Humidity: 93%   Direction: 210°SSW
Pressure: 30.24"   Gusts: NA
Location:  50.44°N, 3.87°E
Report Text: EBCV 230125Z AUTO 21006KT 9999 FEW027/// SCT031/// 08/07 Q1024 BLU
Loading
Personal Weather Stations






























Interactive Weather Map
Tropical Storm Tracking
New forecast layout! Learn more

10-Day Weather Forecast

Advertisements
Track Severe Weather on mobile